Time;durP1;ratioP1;P1;durP2;ratioP2;P2;SDS_P1;SDS_P2;PMS_P1;PMS_P2;Temp;Humidity;BMP_temperature;BMP_pressure;BME280_temperature;BME280_humidity;BME280_pressure;Samples;Min_cycle;Max_cycle;Signal;HPM_P1;HPM_P2
2021/10/27 00:02:07;;;;;;;33.50;25.80;;;24.80;96.80;;;;;;1856566;75;21095;-78
2021/10/27 00:04:38;;;;;;;31.12;25.10;;;24.90;96.70;;;;;;1855644;75;21181;-80
2021/10/27 00:07:08;;;;;;;30.17;24.92;;;24.80;96.50;;;;;;1847573;75;22032;-80
2021/10/27 00:09:43;;;;;;;29.05;24.92;;;24.80;96.40;;;;;;1859551;75;21610;-81
2021/10/27 00:12:15;;;;;;;28.98;23.85;;;25.00;96.60;;;;;;1872155;74;21498;-80
2021/10/27 00:14:46;;;;;;;28.40;22.58;;;25.00;96.20;;;;;;1838544;75;21102;-79
2021/10/27 00:17:17;;;;;;;33.33;25.23;;;25.10;96.30;;;;;;1883372;73;21144;-80
2021/10/27 00:19:48;;;;;;;28.32;23.65;;;25.00;96.20;;;;;;1859994;75;21157;-80
2021/10/27 00:22:18;;;;;;;29.07;24.40;;;25.30;96.10;;;;;;1821247;76;21096;-80
2021/10/27 00:24:50;;;;;;;29.05;24.18;;;25.30;96.30;;;;;;1888069;74;21547;-79
2021/10/27 00:27:21;;;;;;;29.98;23.42;;;25.30;95.70;;;;;;1869141;75;21166;-80
2021/10/27 00:29:53;;;;;;;27.45;23.47;;;25.40;95.40;;;;;;1938938;72;21158;-80
2021/10/27 00:32:24;;;;;;;29.25;24.90;;;25.30;95.50;;;;;;1907352;73;21281;-79
2021/10/27 00:34:54;;;;;;;27.73;23.50;;;25.50;95.40;;;;;;1912779;73;21157;-80
2021/10/27 00:37:25;;;;;;;29.40;23.55;;;25.30;95.10;;;;;;1911110;72;21141;-80
2021/10/27 00:39:56;;;;;;;27.20;24.07;;;25.50;95.20;;;;;;1911297;73;21711;-80
2021/10/27 00:42:27;;;;;;;26.17;22.75;;;25.50;95.00;;;;;;1915990;72;21126;-80
2021/10/27 00:44:58;;;;;;;31.97;23.00;;;25.50;95.00;;;;;;1900783;73;21236;-80
2021/10/27 00:47:29;;;;;;;29.70;24.35;;;25.70;94.90;;;;;;1893230;73;21133;-80
2021/10/27 00:50:00;;;;;;;29.50;23.75;;;25.80;94.70;;;;;;1914958;71;21166;-80
2021/10/27 00:52:31;;;;;;;28.65;22.82;;;25.50;94.50;;;;;;1866007;74;21258;-79
2021/10/27 00:55:02;;;;;;;27.75;22.67;;;25.50;94.50;;;;;;1915845;72;21092;-80
2021/10/27 00:57:32;;;;;;;28.52;23.73;;;25.50;94.80;;;;;;1887769;73;21277;-80
2021/10/27 01:00:05;;;;;;;27.93;23.57;;;25.60;94.80;;;;;;1822158;76;21180;-80
2021/10/27 01:02:35;;;;;;;27.22;23.07;;;25.60;94.70;;;;;;1872193;74;21690;-80
2021/10/27 01:05:07;;;;;;;31.02;24.12;;;25.80;94.70;;;;;;1851889;76;21624;-80
2021/10/27 01:07:38;;;;;;;29.57;23.45;;;25.70;94.60;;;;;;1869575;75;21630;-80
2021/10/27 01:10:09;;;;;;;31.57;25.15;;;25.70;94.60;;;;;;1903661;73;21160;-79
2021/10/27 01:12:41;;;;;;;27.75;23.70;;;25.80;94.40;;;;;;1913250;72;21116;-79
2021/10/27 01:15:12;;;;;;;25.77;22.15;;;25.90;94.20;;;;;;1905918;73;21159;-79
2021/10/27 01:17:43;;;;;;;27.85;23.38;;;25.90;94.10;;;;;;1905749;73;21169;-80
2021/10/27 01:20:13;;;;;;;30.70;24.80;;;25.70;94.00;;;;;;1923724;73;21202;-80
2021/10/27 01:22:44;;;;;;;31.93;22.45;;;25.80;94.20;;;;;;1921898;72;21224;-79
2021/10/27 01:25:15;;;;;;;30.52;24.65;;;25.90;94.10;;;;;;1926750;73;21604;-79
2021/10/27 01:27:47;;;;;;;28.42;23.30;;;26.00;94.10;;;;;;1911747;73;21148;-81
2021/10/27 01:30:21;;;;;;;26.55;22.80;;;26.00;93.90;;;;;;1906928;73;21126;-80
2021/10/27 01:32:52;;;;;;;28.27;21.87;;;25.90;93.60;;;;;;1892563;73;21137;-80
2021/10/27 01:35:23;;;;;;;24.43;21.62;;;25.90;93.20;;;;;;1896441;74;21167;-81
2021/10/27 01:37:55;;;;;;;25.43;21.42;;;26.10;93.40;;;;;;1901581;73;21601;-81
2021/10/27 01:40:26;;;;;;;28.65;22.75;;;26.10;93.60;;;;;;1916509;73;21184;-81
2021/10/27 01:42:57;;;;;;;30.25;23.50;;;26.10;93.40;;;;;;1901980;74;21223;-81
2021/10/27 01:45:29;;;;;;;26.90;22.90;;;26.00;93.30;;;;;;1908221;72;21213;-81
2021/10/27 01:48:01;;;;;;;26.00;21.35;;;26.00;93.00;;;;;;1898883;74;21240;-80
2021/10/27 01:50:34;;;;;;;24.27;20.55;;;26.20;92.80;;;;;;1850124;74;21258;-80
2021/10/27 01:53:04;;;;;;;26.30;20.77;;;26.10;92.80;;;;;;1848984;75;21138;-81
2021/10/27 01:55:34;;;;;;;23.90;20.75;;;26.30;92.90;;;;;;1859383;74;21148;-82
2021/10/27 01:58:05;;;;;;;25.00;20.45;;;26.10;92.80;;;;;;1909118;73;21537;-81
2021/10/27 02:00:36;;;;;;;23.20;20.75;;;26.30;92.90;;;;;;1926733;73;21177;-81
2021/10/27 02:03:07;;;;;;;27.25;22.90;;;26.10;92.80;;;;;;1899573;72;21515;-81
2021/10/27 02:05:38;;;;;;;29.63;21.68;;;26.10;92.80;;;;;;1901258;72;21186;-79
2021/10/27 02:08:09;;;;;;;27.70;21.60;;;26.20;92.80;;;;;;1906623;73;21212;-79
2021/10/27 02:10:40;;;;;;;24.92;21.60;;;26.50;93.00;;;;;;1920794;72;21649;-81
2021/10/27 02:13:11;;;;;;;26.65;22.10;;;26.30;92.80;;;;;;1872624;74;21140;-81
2021/10/27 02:15:42;;;;;;;31.17;23.25;;;26.30;93.10;;;;;;1848203;75;21198;-80
2021/10/27 02:18:12;;;;;;;26.93;22.25;;;26.40;92.70;;;;;;1912832;73;21099;-80
2021/10/27 02:20:43;;;;;;;24.85;21.25;;;26.40;92.90;;;;;;1857760;75;21143;-80
2021/10/27 02:23:16;;;;;;;27.35;22.37;;;26.40;93.00;;;;;;1865805;75;21108;-80
2021/10/27 02:25:47;;;;;;;26.37;22.40;;;26.60;93.10;;;;;;1869854;75;21143;-80
2021/10/27 02:28:19;;;;;;;24.15;21.55;;;26.60;93.20;;;;;;1856361;75;21716;-81
2021/10/27 02:30:50;;;;;;;26.90;21.10;;;26.70;93.10;;;;;;1848565;75;21218;-81
2021/10/27 02:33:21;;;;;;;26.95;22.85;;;26.80;93.00;;;;;;1861300;74;21352;-80
2021/10/27 02:35:52;;;;;;;26.37;21.73;;;26.80;92.90;;;;;;1866652;74;21733;-80
2021/10/27 02:38:24;;;;;;;25.27;21.27;;;26.90;92.90;;;;;;1863678;75;21137;-80
2021/10/27 02:40:56;;;;;;;25.88;21.20;;;27.20;92.60;;;;;;1910745;72;21667;-81
2021/10/27 02:43:27;;;;;;;29.57;21.05;;;26.90;92.50;;;;;;1913683;73;21156;-82
2021/10/27 02:45:58;;;;;;;27.00;21.82;;;26.90;92.40;;;;;;1910020;73;21212;-80
2021/10/27 02:48:28;;;;;;;25.88;21.75;;;27.00;92.50;;;;;;1913452;73;21133;-81
2021/10/27 02:51:00;;;;;;;24.63;21.68;;;27.10;92.30;;;;;;1911769;73;21164;-80
2021/10/27 02:53:31;;;;;;;24.82;21.10;;;27.10;91.80;;;;;;1894212;73;21605;-81
2021/10/27 02:56:02;;;;;;;26.50;23.25;;;27.40;91.50;;;;;;1903013;73;21648;-81
2021/10/27 02:58:32;;;;;;;24.67;20.43;;;27.30;91.20;;;;;;1846730;75;21129;-81
2021/10/27 03:01:03;;;;;;;25.15;20.68;;;27.40;90.90;;;;;;1822955;76;21597;-82
2021/10/27 03:03:35;;;;;;;25.72;20.72;;;27.50;90.80;;;;;;1899039;72;21166;-81
2021/10/27 03:06:06;;;;;;;25.70;20.05;;;27.60;90.70;;;;;;1905283;73;21209;-81
2021/10/27 03:08:37;;;;;;;24.75;20.62;;;27.70;90.40;;;;;;1899536;73;21168;-80
2021/10/27 03:11:09;;;;;;;31.57;21.57;;;27.70;90.20;;;;;;1890200;73;21222;-80
2021/10/27 03:13:41;;;;;;;22.55;20.02;;;27.80;89.90;;;;;;1919119;72;21176;-79
2021/10/27 03:16:12;;;;;;;24.43;20.50;;;27.90;89.90;;;;;;1902828;73;21124;-81
2021/10/27 03:18:44;;;;;;;22.55;20.12;;;28.00;90.90;;;;;;1905308;72;21138;-81
2021/10/27 03:21:14;;;;;;;22.40;20.05;;;28.20;92.80;;;;;;1897644;73;21140;-80
2021/10/27 03:23:45;;;;;;;28.45;21.07;;;28.20;92.70;;;;;;1819221;76;21278;-79
2021/10/27 03:26:16;;;;;;;24.82;20.27;;;28.20;92.40;;;;;;1867375;74;21187;-80
2021/10/27 03:28:47;;;;;;;22.70;18.70;;;28.60;92.70;;;;;;1868597;74;21149;-80
2021/10/27 03:31:17;;;;;;;22.62;19.50;;;28.60;92.20;;;;;;1840693;76;21111;-80
2021/10/27 03:33:48;;;;;;;24.32;20.00;;;28.60;92.10;;;;;;1918864;72;21137;-80
2021/10/27 03:36:20;;;;;;;23.55;19.80;;;28.60;91.80;;;;;;1906364;74;21297;-81
2021/10/27 03:38:50;;;;;;;22.48;20.10;;;28.70;92.30;;;;;;1932459;72;21196;-81
2021/10/27 03:41:22;;;;;;;22.77;20.23;;;29.00;92.20;;;;;;1923929;72;21564;-82
2021/10/27 03:43:52;;;;;;;26.85;20.37;;;28.80;91.70;;;;;;1919968;73;21098;-81
2021/10/27 03:46:24;;;;;;;23.45;20.75;;;29.00;92.40;;;;;;1939324;72;21178;-81
2021/10/27 03:48:54;;;;;;;21.87;19.57;;;29.20;93.60;;;;;;1930359;72;21664;-80
2021/10/27 03:51:26;;;;;;;23.85;19.37;;;29.30;94.80;;;;;;1937926;72;22251;-81
2021/10/27 03:53:57;;;;;;;23.07;18.80;;;29.30;94.60;;;;;;1911788;73;21165;-81
2021/10/27 03:56:27;;;;;;;23.55;18.73;;;;;;;;;;1920034;73;21128;-80
2021/10/27 03:58:58;;;;;;;25.52;19.75;;;;;;;;;;1903147;73;21197;-81
2021/10/27 04:01:28;;;;;;;22.27;19.85;;;;;;;;;;1893338;73;21138;-81
2021/10/27 04:03:59;;;;;;;21.45;19.17;;;29.70;98.60;;;;;;1866642;74;21566;-82
2021/10/27 04:06:30;;;;;;;24.20;19.32;;;;;;;;;;1863212;75;21197;-82
2021/10/27 04:09:00;;;;;;;20.82;17.73;;;30.10;99.90;;;;;;1871650;74;21168;-80
2021/10/27 04:11:31;;;;;;;22.85;17.75;;;29.90;95.80;;;;;;1867375;74;21200;-81
2021/10/27 04:14:02;;;;;;;24.70;18.95;;;30.10;89.70;;;;;;1888858;73;21202;-82
2021/10/27 04:16:33;;;;;;;22.05;18.10;;;30.30;89.00;;;;;;1899304;73;21126;-81
2021/10/27 04:19:04;;;;;;;20.72;17.55;;;30.10;88.90;;;;;;1897321;72;21768;-82
2021/10/27 04:21:35;;;;;;;22.13;17.85;;;;;;;;;;1901860;72;22329;-82
2021/10/27 04:24:07;;;;;;;19.55;16.52;;;;;;;;;;1904900;73;21183;-82
2021/10/27 04:26:37;;;;;;;21.20;17.10;;;;;;;;;;1891156;74;21206;-80
2021/10/27 04:29:07;;;;;;;20.55;17.25;;;;;;;;;;1890173;73;21147;-81
2021/10/27 04:31:37;;;;;;;18.82;16.15;;;;;;;;;;1914521;73;21573;-80
2021/10/27 04:34:08;;;;;;;21.65;16.85;;;;;;;;;;1881045;73;21142;-81
2021/10/27 04:36:38;;;;;;;20.02;17.77;;;;;;;;;;1900669;73;21136;-80
2021/10/27 04:39:09;;;;;;;21.57;16.40;;;;;;;;;;1912525;73;21152;-78
2021/10/27 04:41:40;;;;;;;18.98;16.87;;;30.70;70.50;;;;;;1893843;74;21143;-80
2021/10/27 04:44:12;;;;;;;20.52;17.35;;;30.70;70.10;;;;;;1911842;72;21275;-81
2021/10/27 04:46:44;;;;;;;19.17;16.62;;;30.70;70.40;;;;;;1901037;73;21165;-81
2021/10/27 04:49:15;;;;;;;17.70;15.55;;;30.70;70.70;;;;;;1886662;73;21221;-82
2021/10/27 04:51:46;;;;;;;19.40;14.80;;;30.70;69.70;;;;;;1906017;73;21109;-80
2021/10/27 04:54:17;;;;;;;17.62;15.72;;;30.80;70.30;;;;;;1893070;73;21199;-80
2021/10/27 04:56:48;;;;;;;17.10;15.35;;;30.90;70.90;;;;;;1915803;73;21162;-80
2021/10/27 04:59:19;;;;;;;18.27;14.28;;;30.90;70.40;;;;;;1897334;73;21261;-80
2021/10/27 05:01:50;;;;;;;16.35;14.50;;;31.00;68.60;;;;;;1887883;73;21203;-80
2021/10/27 05:04:21;;;;;;;18.62;14.73;;;31.00;68.30;;;;;;1894461;72;21175;-82
2021/10/27 05:06:51;;;;;;;16.97;15.18;;;31.10;68.60;;;;;;1906712;72;21667;-73
2021/10/27 05:09:22;;;;;;;16.23;14.47;;;31.10;68.80;;;;;;1906816;73;21178;-74
2021/10/27 05:11:53;;;;;;;17.37;14.65;;;31.20;68.70;;;;;;1900508;72;21269;-73
2021/10/27 05:14:24;;;;;;;15.98;14.00;;;31.20;66.50;;;;;;1940133;72;21100;-73
2021/10/27 05:16:55;;;;;;;15.83;14.23;;;31.10;66.20;;;;;;1910802;73;21215;-73
2021/10/27 05:19:26;;;;;;;15.05;13.48;;;31.20;66.90;;;;;;1836020;77;21224;-73
2021/10/27 05:21:58;;;;;;;17.17;14.10;;;31.20;65.30;;;;;;1868761;74;21717;-72
2021/10/27 05:24:28;;;;;;;16.75;14.53;;;31.20;65.50;;;;;;1865814;74;21710;-72
2021/10/27 05:26:59;;;;;;;16.48;13.58;;;31.20;66.50;;;;;;1881496;74;21239;-72
2021/10/27 05:29:33;;;;;;;15.00;12.90;;;31.20;66.50;;;;;;1874310;74;21655;-72
2021/10/27 05:32:09;;;;;;;15.23;13.62;;;31.30;66.00;;;;;;1864176;75;21235;-74
2021/10/27 05:34:42;;;;;;;15.90;13.03;;;31.30;65.30;;;;;;1872391;74;21665;-73
2021/10/27 05:37:14;;;;;;;14.55;13.08;;;31.30;64.60;;;;;;1864727;75;21569;-73
2021/10/27 05:39:45;;;;;;;13.00;11.60;;;31.30;64.80;;;;;;1928150;72;21156;-73
2021/10/27 05:42:20;;;;;;;14.15;12.75;;;31.30;64.10;;;;;;1885723;74;21626;-73
2021/10/27 05:44:51;;;;;;;14.58;13.08;;;31.30;64.70;;;;;;1903666;72;21883;-72
2021/10/27 05:47:22;;;;;;;15.38;13.68;;;31.40;64.40;;;;;;1926422;72;21541;-72
2021/10/27 05:50:05;;;;;;;21.40;14.53;;;31.40;64.60;;;;;;1922929;73;21143;-72
2021/10/27 05:57:41;;;;;;;17.30;13.40;;;31.40;66.10;;;;;;1914145;73;21182;-73
2021/10/27 06:00:00;;;;;;;14.75;13.25;;;31.50;66.10;;;;;;1889187;74;21095;-73
2021/10/27 06:02:31;;;;;;;15.85;13.58;;;;;;;;;;1902885;73;21806;-72
2021/10/27 06:05:02;;;;;;;15.18;13.45;;;31.60;65.40;;;;;;1899296;73;21134;-73
2021/10/27 06:07:32;;;;;;;17.00;13.78;;;31.60;65.90;;;;;;1915811;72;21268;-73
2021/10/27 06:10:03;;;;;;;15.40;13.38;;;31.60;66.10;;;;;;1936995;72;21461;-73
2021/10/27 06:12:34;;;;;;;15.48;13.35;;;31.70;65.80;;;;;;1933287;72;21540;-73
2021/10/27 06:15:06;;;;;;;14.25;11.88;;;31.50;66.20;;;;;;1919505;73;21231;-73
2021/10/27 06:17:38;;;;;;;14.73;12.05;;;31.50;65.70;;;;;;1898523;74;21080;-73
2021/10/27 06:20:09;;;;;;;15.58;13.08;;;31.50;65.80;;;;;;1913651;72;21116;-73
2021/10/27 06:22:41;;;;;;;16.35;12.70;;;31.50;65.90;;;;;;1934648;72;21636;-73
2021/10/27 06:25:12;;;;;;;15.95;13.35;;;31.50;66.90;;;;;;1907962;72;21191;-73
2021/10/27 06:27:47;;;;;;;14.43;12.65;;;31.40;67.00;;;;;;1926312;72;21093;-72
2021/10/27 06:30:22;;;;;;;15.90;12.55;;;31.40;67.40;;;;;;1904411;73;21226;-72
2021/10/27 06:35:28;;;;;;;14.93;12.55;;;31.30;67.10;;;;;;1921839;72;21504;-73
2021/10/27 06:48:07;;;;;;;13.10;11.68;;;31.30;67.60;;;;;;1937203;71;21139;-73
2021/10/27 06:50:43;;;;;;;14.63;11.93;;;31.20;67.80;;;;;;1934730;72;21187;-73
2021/10/27 06:53:11;;;;;;;15.10;12.55;;;31.20;67.80;;;;;;1906020;73;21231;-73
2021/10/27 06:55:44;;;;;;;13.53;12.03;;;31.30;68.50;;;;;;1927010;73;21352;-73
2021/10/27 06:58:20;;;;;;;14.43;12.68;;;31.30;68.50;;;;;;1895881;73;21188;-74
2021/10/27 07:00:54;;;;;;;14.03;12.50;;;31.40;68.80;;;;;;1875111;74;21673;-74
2021/10/27 07:16:01;;;;;;;13.85;11.70;;;31.20;68.30;;;;;;1905265;73;21601;-73
2021/10/27 07:18:31;;;;;;;14.58;11.90;;;31.20;68.00;;;;;;1906264;73;21148;-73
2021/10/27 07:21:02;;;;;;;15.58;12.88;;;31.20;68.40;;;;;;1915753;73;22039;-73
2021/10/27 07:23:34;;;;;;;13.22;11.83;;;31.10;68.40;;;;;;1859848;75;21118;-74
2021/10/27 07:26:08;;;;;;;14.45;12.20;;;31.00;68.40;;;;;;1895102;74;21150;-72
2021/10/27 07:28:46;;;;;;;14.73;12.23;;;31.00;68.80;;;;;;1887692;74;21142;-73
2021/10/27 07:31:17;;;;;;;17.27;12.03;;;31.00;69.30;;;;;;1896027;75;21111;-74
2021/10/27 07:39:50;;;;;;;16.30;12.37;;;31.00;69.00;;;;;;1910145;73;21142;-74
2021/10/27 07:41:32;;;;;;;13.43;11.78;;;31.00;70.10;;;;;;1914912;73;21253;-74
2021/10/27 07:44:14;;;;;;;15.45;12.40;;;31.00;69.70;;;;;;1916214;73;21797;-73
2021/10/27 07:46:36;;;;;;;13.95;12.40;;;31.00;70.00;;;;;;1900934;72;21277;-73
2021/10/27 07:49:07;;;;;;;13.20;11.88;;;30.90;70.20;;;;;;1902619;73;21235;-73
2021/10/27 07:51:38;;;;;;;17.98;11.85;;;30.90;68.80;;;;;;1912185;72;22428;-73
2021/10/27 07:54:11;;;;;;;14.23;12.43;;;30.90;69.50;;;;;;1910240;73;21057;-72
2021/10/27 07:56:47;;;;;;;14.47;12.43;;;30.90;69.60;;;;;;1918985;73;21539;-72
2021/10/27 07:59:15;;;;;;;15.32;12.23;;;30.90;69.70;;;;;;1914787;73;21155;-74
2021/10/27 08:01:46;;;;;;;13.88;12.45;;;30.80;69.90;;;;;;1912021;72;21174;-74
2021/10/27 08:04:17;;;;;;;14.07;12.10;;;30.70;70.40;;;;;;1899196;72;21207;-75
2021/10/27 08:06:49;;;;;;;13.62;12.20;;;30.70;70.90;;;;;;1924408;73;21598;-74
2021/10/27 08:09:20;;;;;;;14.43;12.07;;;30.70;70.50;;;;;;1914000;72;21848;-75
2021/10/27 08:11:51;;;;;;;13.05;11.75;;;30.70;70.80;;;;;;1886881;73;21172;-75
2021/10/27 08:14:21;;;;;;;15.18;12.40;;;30.70;70.00;;;;;;1898306;73;21192;-74
2021/10/27 08:16:53;;;;;;;15.05;12.25;;;30.80;69.70;;;;;;1909835;73;21630;-74
2021/10/27 08:19:25;;;;;;;16.00;12.40;;;30.70;69.70;;;;;;1890694;72;21074;-74
2021/10/27 08:21:59;;;;;;;13.35;11.50;;;30.60;69.70;;;;;;1927990;73;21204;-74
2021/10/27 08:24:28;;;;;;;14.07;12.23;;;30.60;70.00;;;;;;1915645;72;21081;-74
2021/10/27 08:27:09;;;;;;;16.70;12.00;;;30.60;70.50;;;;;;1919904;72;21179;-73
2021/10/27 08:29:39;;;;;;;14.25;12.58;;;30.60;69.80;;;;;;1901101;73;21179;-75
2021/10/27 08:32:17;;;;;;;16.82;13.20;;;30.60;70.00;;;;;;1887563;73;21130;-73
2021/10/27 08:34:43;;;;;;;13.50;12.15;;;30.60;70.10;;;;;;1919883;72;21118;-73
2021/10/27 08:37:12;;;;;;;13.38;11.65;;;30.70;69.30;;;;;;1905869;73;22253;-74
2021/10/27 08:39:44;;;;;;;13.85;12.18;;;30.70;68.00;;;;;;1895039;73;21254;-74
2021/10/27 08:42:17;;;;;;;16.20;12.65;;;30.70;68.10;;;;;;1893769;74;21206;-75
2021/10/27 08:44:47;;;;;;;12.80;11.18;;;30.70;68.70;;;;;;1911763;73;21207;-75
2021/10/27 08:47:19;;;;;;;13.30;11.73;;;30.70;68.40;;;;;;1894014;73;21715;-75
2021/10/27 08:49:51;;;;;;;13.22;11.83;;;30.60;68.30;;;;;;1912430;72;21119;-75
2021/10/27 08:52:23;;;;;;;14.65;11.97;;;30.60;68.40;;;;;;1901536;74;21177;-74
2021/10/27 08:54:56;;;;;;;16.42;12.05;;;30.50;67.50;;;;;;1923350;73;21582;-74
2021/10/27 08:57:26;;;;;;;15.40;12.85;;;30.50;68.10;;;;;;1964970;72;21118;-74
2021/10/27 09:00:08;;;;;;;13.50;12.10;;;30.50;68.50;;;;;;1922819;72;21129;-74
2021/10/27 09:05:32;;;;;;;14.75;12.03;;;30.50;68.80;;;;;;1920090;73;21131;-73
2021/10/27 09:38:37;;;;;;;17.40;14.13;;;30.10;70.20;;;;;;1888819;74;21112;-74
2021/10/27 10:06:41;;;;;;;19.85;14.75;;;29.70;72.60;;;;;;1910073;73;21690;-73
2021/10/27 10:09:14;;;;;;;20.15;15.55;;;29.70;72.60;;;;;;1914173;73;21092;-73
2021/10/27 10:11:44;;;;;;;21.62;16.60;;;29.70;73.00;;;;;;1916554;73;21210;-74
2021/10/27 10:14:17;;;;;;;17.82;14.33;;;29.60;73.20;;;;;;1904658;73;21231;-74
2021/10/27 10:16:50;;;;;;;17.90;15.53;;;29.60;73.30;;;;;;1912312;74;21216;-74
2021/10/27 10:19:23;;;;;;;20.23;15.60;;;29.60;73.60;;;;;;1912034;73;21576;-73
2021/10/27 10:21:55;;;;;;;25.72;16.60;;;29.50;73.70;;;;;;1943684;72;21165;-73
2021/10/27 10:24:29;;;;;;;20.85;15.72;;;29.50;74.20;;;;;;1934990;72;21171;-74
2021/10/27 10:27:03;;;;;;;20.20;15.28;;;29.50;74.40;;;;;;1903896;74;21077;-74
2021/10/27 10:29:39;;;;;;;19.12;16.00;;;29.50;74.60;;;;;;1916683;74;21109;-74
2021/10/27 10:32:10;;;;;;;20.88;16.00;;;29.40;74.80;;;;;;1912335;72;21248;-74
2021/10/27 10:34:50;;;;;;;22.05;17.02;;;29.40;75.20;;;;;;1900820;73;21445;-74
2021/10/27 10:37:19;;;;;;;25.77;17.50;;;29.30;75.50;;;;;;1907639;73;21237;-74
2021/10/27 10:39:54;;;;;;;24.52;16.75;;;29.30;75.60;;;;;;1912902;72;21953;-74
2021/10/27 10:42:44;;;;;;;26.62;17.15;;;29.30;75.70;;;;;;1856801;75;21144;-74
2021/10/27 10:45:26;;;;;;;19.65;16.50;;;29.30;75.90;;;;;;1852231;74;21635;-73
2021/10/27 11:00:56;;;;;;;27.30;20.02;;;29.10;77.20;;;;;;1878964;74;21110;-75
2021/10/27 11:03:55;;;;;;;28.35;20.05;;;29.10;77.30;;;;;;1888367;73;21103;-74
2021/10/27 11:26:12;;;;;;;27.62;20.57;;;28.90;77.40;;;;;;1898796;73;21209;-74
2021/10/27 11:39:09;;;;;;;24.85;19.30;;;28.90;77.60;;;;;;1903105;73;21094;-78
2021/10/27 11:41:32;;;;;;;25.27;19.37;;;28.80;77.40;;;;;;1930377;72;21507;-79
2021/10/27 11:44:12;;;;;;;23.42;18.15;;;28.80;77.20;;;;;;1895626;73;21570;-78
2021/10/27 11:46:38;;;;;;;23.65;18.98;;;28.90;77.40;;;;;;1933560;72;21118;-78
2021/10/27 11:49:16;;;;;;;29.50;21.33;;;28.80;77.20;;;;;;1914962;73;21146;-78
2021/10/27 11:51:51;;;;;;;25.20;19.07;;;28.80;77.30;;;;;;1922509;73;21153;-79
2021/10/27 11:54:25;;;;;;;24.67;18.73;;;28.80;77.40;;;;;;1908861;72;21310;-77
2021/10/27 11:56:59;;;;;;;24.27;18.95;;;28.80;77.70;;;;;;1896649;73;21582;-78
2021/10/27 11:59:48;;;;;;;23.42;17.57;;;28.80;77.60;;;;;;1908858;72;21996;-78
2021/10/27 12:02:17;;;;;;;23.25;19.20;;;28.80;78.70;;;;;;1919770;73;21173;-78
2021/10/27 12:04:48;;;;;;;27.13;18.67;;;28.80;77.80;;;;;;1912305;73;21102;-78
2021/10/27 12:07:31;;;;;;;24.82;18.62;;;28.80;77.80;;;;;;1872677;74;21237;-78
2021/10/27 12:17:58;;;;;;;24.52;19.32;;;28.80;77.90;;;;;;1851635;75;21220;-78
2021/10/27 12:20:07;;;;;;;24.77;18.50;;;28.70;77.90;;;;;;1918705;73;21598;-79
2021/10/27 12:22:38;;;;;;;25.68;19.35;;;28.80;77.50;;;;;;1889507;74;21598;-78
2021/10/27 12:25:09;;;;;;;34.00;20.65;;;28.80;77.40;;;;;;1882200;73;21712;-78
2021/10/27 12:27:44;;;;;;;25.77;19.60;;;28.70;77.30;;;;;;1885505;73;21235;-79
2021/10/27 12:30:16;;;;;;;23.40;18.73;;;28.70;77.20;;;;;;1853669;75;21632;-78
2021/10/27 12:32:50;;;;;;;23.67;19.80;;;28.70;77.00;;;;;;1912162;72;21649;-78
2021/10/27 12:35:23;;;;;;;23.12;19.30;;;28.70;76.90;;;;;;1875320;74;21138;-79
2021/10/27 12:37:58;;;;;;;25.65;19.60;;;28.60;76.60;;;;;;1888499;75;21060;-79
2021/10/27 12:40:34;;;;;;;28.20;18.85;;;28.60;76.70;;;;;;1865930;74;21565;-79
2021/10/27 12:43:06;;;;;;;25.05;17.75;;;28.60;76.80;;;;;;1902881;73;21158;-79
2021/10/27 12:45:40;;;;;;;29.55;20.27;;;28.60;77.10;;;;;;1857111;75;21200;-79
2021/10/27 12:48:13;;;;;;;24.52;18.92;;;28.60;77.20;;;;;;1864972;74;21073;-79
2021/10/27 12:50:47;;;;;;;25.43;19.15;;;28.50;77.20;;;;;;1875300;74;21709;-80
2021/10/27 12:53:19;;;;;;;22.25;19.17;;;28.50;77.10;;;;;;1856204;74;21572;-79
2021/10/27 12:55:51;;;;;;;25.55;20.35;;;28.50;77.40;;;;;;1872121;74;21577;-79
2021/10/27 12:58:24;;;;;;;25.27;18.55;;;28.50;77.60;;;;;;1869407;74;21694;-79
2021/10/27 13:01:10;;;;;;;26.12;19.50;;;28.40;77.50;;;;;;1882565;74;21168;-79
2021/10/27 13:16:54;;;;;;;26.45;19.62;;;28.30;78.30;;;;;;1917919;72;21627;-78
2021/10/27 13:21:44;;;;;;;24.80;20.02;;;28.30;78.50;;;;;;1926389;72;20227;-79
2021/10/27 13:31:45;;;;;;;25.30;21.15;;;28.30;79.00;;;;;;1906074;73;21230;-78
2021/10/27 13:34:18;;;;;;;26.90;19.67;;;28.20;79.00;;;;;;1920216;73;21591;-79
2021/10/27 13:36:50;;;;;;;23.83;20.68;;;28.20;79.20;;;;;;1916858;73;21204;-79
2021/10/27 13:39:22;;;;;;;24.72;20.10;;;28.20;79.20;;;;;;1921640;73;21762;-79
2021/10/27 13:42:01;;;;;;;22.85;19.75;;;28.20;79.20;;;;;;1904142;73;21713;-79
2021/10/27 13:44:38;;;;;;;25.23;19.40;;;28.20;79.20;;;;;;1876731;74;21207;-78
2021/10/27 13:49:53;;;;;;;21.82;19.50;;;28.10;79.10;;;;;;1878940;74;21148;-79
2021/10/27 14:10:03;;;;;;;23.85;19.73;;;28.10;79.50;;;;;;1857199;75;21139;-78
2021/10/27 14:12:39;;;;;;;24.43;18.40;;;28.00;79.60;;;;;;1934308;72;21205;-79
2021/10/27 14:15:07;;;;;;;22.17;19.50;;;28.00;79.60;;;;;;1910385;73;21131;-78
2021/10/27 14:20:30;;;;;;;24.77;19.52;;;28.00;79.90;;;;;;1873083;73;21090;-79
2021/10/27 15:41:42;;;;;;;25.70;22.00;;;27.50;83.80;;;;;;1914960;73;21077;-79
2021/10/27 15:51:47;;;;;;;25.05;20.40;;;27.50;84.10;;;;;;1867971;74;21133;-79
2021/10/27 15:54:14;;;;;;;28.98;22.13;;;27.50;84.10;;;;;;1867016;74;21122;-79
2021/10/27 15:56:45;;;;;;;24.87;20.20;;;27.50;84.20;;;;;;1873608;74;21206;-79
2021/10/27 15:59:17;;;;;;;27.37;21.60;;;27.50;85.30;;;;;;1842790;75;21667;-78
2021/10/27 16:01:49;;;;;;;30.30;22.62;;;27.50;84.40;;;;;;1844978;76;21625;-79
2021/10/27 16:04:21;;;;;;;24.75;20.92;;;27.50;84.40;;;;;;1884352;74;21123;-78
2021/10/27 16:06:53;;;;;;;28.47;21.45;;;27.50;84.70;;;;;;1875410;74;21113;-79
2021/10/27 16:09:29;;;;;;;27.50;21.75;;;27.50;84.80;;;;;;1869922;76;21323;-78
2021/10/27 16:11:58;;;;;;;28.20;21.90;;;27.40;84.90;;;;;;1830705;76;21097;-79
2021/10/27 16:14:30;;;;;;;27.35;21.52;;;27.50;85.20;;;;;;1869575;74;21232;-78
2021/10/27 16:17:01;;;;;;;32.67;23.00;;;27.40;85.00;;;;;;1869040;76;21606;-79
2021/10/27 16:19:32;;;;;;;29.00;21.77;;;27.50;85.10;;;;;;1863582;74;21339;-79
2021/10/27 16:22:05;;;;;;;27.67;21.82;;;27.40;85.40;;;;;;1869664;75;21157;-79
2021/10/27 16:24:36;;;;;;;26.25;21.95;;;27.40;85.40;;;;;;1937033;73;21620;-79
2021/10/27 16:27:10;;;;;;;31.80;23.40;;;27.40;85.60;;;;;;1904718;73;21208;-79
2021/10/27 16:29:41;;;;;;;24.63;21.30;;;27.40;85.70;;;;;;1895576;73;21226;-78
2021/10/27 16:32:12;;;;;;;30.05;23.75;;;27.40;85.70;;;;;;1907035;72;21117;-79
2021/10/27 16:34:43;;;;;;;26.05;22.73;;;27.30;85.60;;;;;;1917265;72;21559;-78
2021/10/27 16:37:15;;;;;;;28.75;23.80;;;27.30;85.80;;;;;;1930827;72;21069;-78
2021/10/27 16:39:46;;;;;;;29.92;22.48;;;27.40;86.00;;;;;;1937330;72;21227;-79
2021/10/27 16:42:23;;;;;;;32.08;24.92;;;27.30;86.00;;;;;;1917858;73;21120;-79
2021/10/27 16:44:50;;;;;;;29.70;24.02;;;27.40;86.00;;;;;;1900298;72;21565;-78
2021/10/27 16:47:20;;;;;;;31.25;22.10;;;27.30;86.20;;;;;;1932404;72;21123;-80
2021/10/27 16:49:51;;;;;;;32.67;24.60;;;27.30;86.50;;;;;;1901800;74;21137;-79
2021/10/27 16:52:22;;;;;;;29.15;23.87;;;27.30;86.70;;;;;;1939007;72;21114;-80
2021/10/27 16:54:56;;;;;;;31.55;24.15;;;27.30;86.60;;;;;;1890120;73;21184;-80
2021/10/27 16:57:28;;;;;;;29.87;26.68;;;27.30;86.60;;;;;;1926291;72;21636;-79
2021/10/27 16:59:58;;;;;;;31.45;23.35;;;27.30;86.90;;;;;;1941199;72;21609;-79
2021/10/27 17:02:30;;;;;;;29.60;24.65;;;27.30;86.90;;;;;;1914860;72;21679;-79
2021/10/27 17:05:02;;;;;;;31.23;25.40;;;27.30;86.90;;;;;;1904878;74;21141;-78
2021/10/27 17:07:32;;;;;;;32.45;25.17;;;27.30;87.10;;;;;;1923201;72;21107;-79
2021/10/27 17:10:05;;;;;;;28.07;23.95;;;27.20;87.30;;;;;;1900380;72;21143;-79
2021/10/27 17:12:37;;;;;;;30.02;24.75;;;27.20;87.60;;;;;;1917930;72;21195;-79
2021/10/27 17:15:10;;;;;;;31.37;24.57;;;27.20;87.60;;;;;;1906414;73;21154;-79
2021/10/27 17:17:42;;;;;;;27.82;23.32;;;27.20;87.70;;;;;;1917488;72;21769;-78
2021/10/27 17:20:15;;;;;;;29.65;25.00;;;27.20;87.90;;;;;;1894888;72;21156;-77
2021/10/27 17:22:48;;;;;;;32.98;23.70;;;27.20;87.70;;;;;;1903327;72;21148;-78
2021/10/27 17:25:19;;;;;;;33.30;25.35;;;27.20;87.60;;;;;;1900288;73;21069;-78
2021/10/27 17:27:50;;;;;;;31.10;24.70;;;27.20;88.00;;;;;;1901820;73;21818;-79
2021/10/27 17:30:22;;;;;;;31.25;25.72;;;27.10;88.00;;;;;;1930476;72;21139;-78
2021/10/27 17:32:58;;;;;;;29.52;24.25;;;27.10;88.10;;;;;;1901477;73;21068;-77